Time;durP1;ratioP1;P1;durP2;ratioP2;P2;SDS_P1;SDS_P2;PMS_P1;PMS_P2;Temp;Humidity;BMP_temperature;BMP_pressure;BME280_temperature;BME280_humidity;BME280_pressure;Samples;Min_cycle;Max_cycle;Signal;HPM_P1;HPM_P2
2022/10/25 00:00:22;;;;;;;22.33;6.07;;;;;;;13.91;91.63;63440.44;5000616;28;20496;-76
2022/10/25 00:02:50;;;;;;;20.58;5.07;;;;;;;13.94;91.07;63438.97;4998576;28;20232;-76
2022/10/25 00:05:17;;;;;;;11.75;5.20;;;;;;;13.93;90.99;63434.84;4999665;28;20223;-77
2022/10/25 00:07:44;;;;;;;17.55;5.05;;;;;;;13.87;91.66;63431.69;5004223;28;20257;-75
2022/10/25 00:10:11;;;;;;;10.90;3.97;;;;;;;13.90;91.90;63429.72;5002443;28;20206;-74
2022/10/25 00:12:42;;;;;;;11.07;4.35;;;;;;;13.87;91.86;63431.69;4999312;28;20223;-76
2022/10/25 00:15:12;;;;;;;12.77;4.80;;;;;;;13.89;91.65;63430.72;5004022;28;20242;-76
2022/10/25 00:17:40;;;;;;;13.05;4.43;;;;;;;13.96;91.25;63440.53;4997752;28;20222;-76
2022/10/25 00:20:09;;;;;;;5.85;3.45;;;;;;;13.94;92.00;63435.91;5004012;28;20222;-75
2022/10/25 00:22:37;;;;;;;9.18;5.28;;;;;;;14.04;91.66;63443.19;4997776;28;20313;-76
2022/10/25 00:25:04;;;;;;;17.15;4.32;;;;;;;14.07;91.24;63454.50;5005211;28;20203;-76
2022/10/25 00:27:32;;;;;;;17.20;4.18;;;;;;;14.05;91.08;63449.38;5006376;28;20314;-76
2022/10/25 00:29:59;;;;;;;16.50;3.67;;;;;;;14.06;91.08;63448.34;5003598;28;20199;-75
2022/10/25 00:32:26;;;;;;;9.50;4.20;;;;;;;14.05;91.11;63449.88;5004131;28;20398;-76
2022/10/25 00:34:53;;;;;;;11.90;4.68;;;;;;;14.06;90.51;63450.91;5005600;28;20196;-75
2022/10/25 00:37:21;;;;;;;11.93;4.40;;;;;;;14.05;90.50;63444.25;4997634;28;20227;-75
2022/10/25 00:39:48;;;;;;;15.23;4.65;;;;;;;14.05;90.46;63447.31;5003805;28;20360;-76
2022/10/25 00:42:20;;;;;;;13.45;4.07;;;;;;;14.00;90.99;63444.69;4996085;28;20231;-76
2022/10/25 00:44:54;;;;;;;14.35;4.80;;;;;;;14.03;91.20;63449.84;5004079;28;20204;-75
2022/10/25 00:47:46;;;;;;;9.18;4.82;;;;;;;14.03;91.48;63447.78;5000112;28;20299;-75
2022/10/25 00:50:35;;;;;;;11.63;4.82;;;;;;;13.96;92.00;63440.53;4998741;28;20208;-75
2022/10/25 00:53:08;;;;;;;15.80;4.57;;;;;;;13.95;92.44;63439.50;4994528;28;20453;-77
2022/10/25 00:55:36;;;;;;;13.80;4.13;;;;;;;13.90;92.88;63432.25;4984915;28;20200;-75
2022/10/25 00:58:08;;;;;;;18.95;4.78;;;;;;;13.85;93.07;63424.53;4988586;28;20224;-75
2022/10/25 01:00:36;;;;;;;8.88;4.55;;;;;;;13.87;93.12;63436.81;4990072;28;20207;-76
2022/10/25 01:03:04;;;;;;;10.93;4.53;;;;;;;13.87;93.16;63426.56;5000283;28;20456;-76
2022/10/25 01:05:30;;;;;;;8.40;3.78;;;;;;;13.86;93.09;63430.16;5004427;28;20389;-75
2022/10/25 01:07:58;;;;;;;13.13;5.00;;;;;;;13.85;92.80;63426.56;5008404;28;20266;-75
2022/10/25 01:10:26;;;;;;;10.50;4.05;;;;;;;13.82;93.36;63423.94;5009070;28;20231;-75
2022/10/25 01:12:53;;;;;;;10.48;4.57;;;;;;;13.82;93.62;63426.50;5005068;28;20531;-76
2022/10/25 01:15:25;;;;;;;14.65;5.35;;;;;;;13.84;93.95;63428.59;5006700;28;20199;-75
2022/10/25 01:18:00;;;;;;;12.32;4.35;;;;;;;13.77;93.94;63418.25;5008073;28;20215;-75
2022/10/25 01:21:09;;;;;;;15.55;5.00;;;;;;;13.70;94.19;63413.53;5006933;28;20199;-75
2022/10/25 01:23:54;;;;;;;12.10;5.13;;;;;;;13.67;95.48;63410.41;4997696;28;20672;-74
2022/10/25 01:27:03;;;;;;;17.05;4.68;;;;;;;13.60;95.62;63398.56;5017010;28;20219;-76
2022/10/25 01:30:04;;;;;;;14.77;4.68;;;;;;;13.49;96.51;63389.72;5008132;28;20455;-75
2022/10/25 01:32:38;;;;;;;13.75;5.38;;;;;;;13.41;96.62;63378.31;4996503;28;20285;-75
2022/10/25 01:35:13;;;;;;;14.07;4.55;;;;;;;13.35;97.18;63382.88;5008009;28;20203;-73
2022/10/25 01:37:47;;;;;;;10.38;4.32;;;;;;;13.30;97.33;63377.16;5003699;28;20230;-75
2022/10/25 01:40:22;;;;;;;11.50;4.65;;;;;;;13.29;97.64;63373.53;5004880;28;20217;-74
2022/10/25 01:42:56;;;;;;;12.80;4.60;;;;;;;13.27;98.02;63366.88;5009525;28;20290;-76
2022/10/25 01:45:27;;;;;;;15.02;5.10;;;;;;;13.23;98.38;63365.28;5008127;28;20235;-76
2022/10/25 01:48:02;;;;;;;7.38;4.30;;;;;;;13.33;98.54;63375.16;5006305;28;20219;-75
2022/10/25 01:50:33;;;;;;;12.18;4.43;;;;;;;13.34;98.55;63376.19;5005214;28;20249;-75
2022/10/25 01:53:00;;;;;;;17.48;5.25;;;;;;;13.32;97.50;63372.06;5006214;28;20565;-76
2022/10/25 01:55:34;;;;;;;8.50;5.15;;;;;;;13.26;97.53;63365.31;5006190;28;20305;-76
2022/10/25 01:58:13;;;;;;;11.15;4.80;;;;;;;13.22;97.97;63369.34;5005355;28;20519;-76
2022/10/25 02:00:49;;;;;;;13.57;5.13;;;;;;;13.23;98.39;63364.78;5010688;28;20191;-75
2022/10/25 02:03:27;;;;;;;9.88;5.07;;;;;;;13.20;98.40;63359.09;5005816;28;20269;-74
2022/10/25 02:06:06;;;;;;;6.53;4.53;;;;;;;13.17;98.71;63359.06;5006476;28;20210;-76
2022/10/25 02:08:40;;;;;;;17.02;4.93;;;;;;;13.12;99.58;63348.25;4997715;28;20250;-76
2022/10/25 02:11:15;;;;;;;14.02;4.10;;;;;;;13.04;100.00;63347.63;5004938;28;20246;-75
2022/10/25 02:13:50;;;;;;;8.95;4.75;;;;;;;13.05;100.00;63346.09;5006234;28;20468;-76
2022/10/25 02:16:22;;;;;;;21.92;5.10;;;;;;;13.03;100.00;63346.59;5005279;28;20227;-75
2022/10/25 02:18:54;;;;;;;10.55;4.38;;;;;;;13.05;100.00;63346.09;5006997;28;20195;-75
2022/10/25 02:21:24;;;;;;;21.02;5.13;;;;;;;12.98;100.00;63344.44;5006339;28;20219;-75
2022/10/25 02:23:53;;;;;;;13.85;4.38;;;;;;;12.95;100.00;63336.22;4992402;28;20260;-74
2022/10/25 02:26:21;;;;;;;14.40;4.72;;;;;;;12.95;100.00;63330.59;5009421;28;20241;-75
2022/10/25 02:28:49;;;;;;;13.65;5.10;;;;;;;13.00;100.00;63340.88;5005091;28;20293;-74
2022/10/25 02:31:18;;;;;;;13.75;5.30;;;;;;;12.96;100.00;63332.13;5005856;28;20219;-74
2022/10/25 02:33:46;;;;;;;18.52;5.00;;;;;;;12.97;100.00;63337.78;5006883;28;20442;-74
2022/10/25 02:36:15;;;;;;;11.40;6.20;;;;;;;12.97;100.00;63338.31;5003688;28;20270;-74
2022/10/25 02:38:44;;;;;;;8.73;5.43;;;;;;;12.96;100.00;63334.19;5005638;28;20270;-75
2022/10/25 02:41:11;;;;;;;18.77;5.30;;;;;;;12.97;100.00;63337.78;5007048;28;20324;-75
2022/10/25 02:43:38;;;;;;;15.10;5.63;;;;;;;12.98;100.00;63336.28;5001605;28;20452;-76
2022/10/25 02:46:06;;;;;;;9.93;4.32;;;;;;;12.95;100.00;63333.66;4995355;28;20220;-75
2022/10/25 02:48:33;;;;;;;13.48;5.13;;;;;;;12.94;100.00;63337.22;5006920;28;20203;-74
2022/10/25 02:51:00;;;;;;;16.27;4.38;;;;;;;12.92;100.00;63335.69;5006168;28;20214;-75
2022/10/25 02:53:28;;;;;;;11.80;4.57;;;;;;;12.87;100.00;63324.84;5001291;28;20219;-75
2022/10/25 02:56:00;;;;;;;11.38;4.95;;;;;;;12.90;100.00;63333.06;5007642;28;20204;-75
2022/10/25 02:58:30;;;;;;;12.27;5.03;;;;;;;12.84;100.00;63329.91;4997274;28;20254;-74
2022/10/25 03:00:57;;;;;;;13.02;5.80;;;;;;;12.85;100.00;63328.41;5002558;28;20211;-75
2022/10/25 03:03:23;;;;;;;9.35;4.93;;;;;;;12.88;100.00;63334.06;5002371;28;20538;-75
2022/10/25 03:05:51;;;;;;;10.02;4.90;;;;;;;12.85;100.00;63323.31;5006813;28;20215;-75
2022/10/25 03:08:18;;;;;;;10.52;4.68;;;;;;;12.83;100.00;63321.22;5006404;28;20211;-75
2022/10/25 03:10:46;;;;;;;10.65;5.43;;;;;;;12.80;100.00;63318.13;5001783;28;20206;-76
2022/10/25 03:13:13;;;;;;;12.45;5.35;;;;;;;12.75;100.00;63320.59;5005142;28;20198;-75
2022/10/25 03:15:40;;;;;;;16.13;5.60;;;;;;;12.77;100.00;63320.63;5004849;28;20204;-75
2022/10/25 03:18:07;;;;;;;11.02;6.07;;;;;;;12.73;100.00;63311.34;4988470;28;20227;-76
2022/10/25 03:20:33;;;;;;;17.05;5.53;;;;;;;12.70;100.00;63308.25;5001775;28;20203;-74
2022/10/25 03:23:00;;;;;;;11.88;5.15;;;;;;;12.69;100.00;63312.34;4988432;28;20247;-75
2022/10/25 03:25:27;;;;;;;16.70;5.82;;;;;;;12.66;100.00;63304.13;5004479;28;20274;-76
2022/10/25 03:27:56;;;;;;;12.80;5.68;;;;;;;12.66;100.00;63306.69;5005541;28;20262;-75
2022/10/25 03:30:23;;;;;;;11.38;5.00;;;;;;;12.60;100.00;63300.44;4994544;28;20392;-74
2022/10/25 03:32:50;;;;;;;20.83;5.68;;;;;;;12.58;100.00;63298.38;5000459;28;20430;-78
2022/10/25 03:35:17;;;;;;;9.48;5.43;;;;;;;12.58;100.00;63300.91;5011202;28;20267;-75
2022/10/25 03:37:44;;;;;;;13.35;5.68;;;;;;;12.55;100.00;63294.75;4999534;28;20282;-75
2022/10/25 03:40:11;;;;;;;13.43;5.75;;;;;;;12.53;100.00;63290.63;4989548;28;20198;-75
2022/10/25 03:42:38;;;;;;;17.55;6.22;;;;;;;12.40;100.00;63277.16;5003742;28;20282;-75
2022/10/25 03:45:07;;;;;;;13.77;5.43;;;;;;;12.36;100.00;63277.59;5009684;28;20269;-76
2022/10/25 03:47:34;;;;;;;15.45;7.43;;;;;;;12.32;100.00;63273.47;5000619;28;20219;-75
2022/10/25 03:50:01;;;;;;;18.88;6.80;;;;;;;12.31;100.00;63269.84;5004529;28;20482;-75
2022/10/25 03:52:28;;;;;;;13.00;7.43;;;;;;;12.28;100.00;63264.72;5004646;28;20222;-75
2022/10/25 03:54:55;;;;;;;14.52;6.25;;;;;;;12.23;100.00;63256.47;5005271;28;20279;-75
2022/10/25 03:57:22;;;;;;;14.32;7.68;;;;;;;12.17;100.00;63253.31;5001664;28;20230;-75
2022/10/25 03:59:49;;;;;;;19.17;7.28;;;;;;;12.11;100.00;63249.13;4996970;28;20223;-76
2022/10/25 04:02:17;;;;;;;13.15;6.78;;;;;;;12.10;100.00;63251.16;5003179;28;20219;-75
2022/10/25 04:04:44;;;;;;;9.65;6.18;;;;;;;12.12;100.00;63250.69;4995781;28;20238;-75
2022/10/25 04:07:11;;;;;;;11.35;6.25;;;;;;;12.04;100.00;63242.41;4999202;28;20491;-77
2022/10/25 04:09:38;;;;;;;16.13;6.13;;;;;;;11.99;100.00;63236.69;5005055;28;20254;-75
2022/10/25 04:12:05;;;;;;;26.60;6.78;;;;;;;11.98;100.00;63240.75;5004327;28;20235;-75
2022/10/25 04:14:32;;;;;;;17.45;5.55;;;;;;;11.93;100.00;63225.38;4994955;28;20208;-74
2022/10/25 04:16:59;;;;;;;16.20;6.43;;;;;;;11.83;100.00;63220.63;5002315;28;20214;-75
2022/10/25 04:19:27;;;;;;;15.07;6.20;;;;;;;11.78;100.00;63212.91;5007500;28;20457;-74
2022/10/25 04:21:54;;;;;;;18.13;6.57;;;;;;;11.83;100.00;63220.63;5002800;28;20417;-74
2022/10/25 04:24:22;;;;;;;18.52;6.10;;;;;;;11.86;100.00;63228.84;4990328;28;20463;-74
2022/10/25 04:26:49;;;;;;;10.43;5.47;;;;;;;11.92;100.00;63229.44;5014529;28;20392;-74
2022/10/25 04:29:16;;;;;;;12.95;5.25;;;;;;;11.94;100.00;63234.06;5000645;28;20203;-74
2022/10/25 04:31:43;;;;;;;12.68;4.47;;;;;;;12.01;100.00;63239.28;5001945;28;20219;-74
2022/10/25 04:34:10;;;;;;;10.05;5.78;;;;;;;12.04;100.00;63242.41;5011369;28;20218;-74
2022/10/25 04:36:38;;;;;;;8.82;4.15;;;;;;;12.04;100.00;63244.94;5013107;28;20251;-74
2022/10/25 04:39:05;;;;;;;8.95;4.50;;;;;;;12.08;100.00;63243.97;5001009;28;20427;-75
2022/10/25 04:41:33;;;;;;;10.75;5.13;;;;;;;12.11;100.00;63252.22;5007196;28;20277;-75
2022/10/25 04:44:00;;;;;;;11.85;4.07;;;;;;;12.13;100.00;63256.81;5016104;28;20238;-75
2022/10/25 04:46:26;;;;;;;11.18;4.97;;;;;;;12.20;100.00;63264.06;5009950;28;20227;-75
2022/10/25 04:48:53;;;;;;;12.50;4.30;;;;;;;12.32;100.00;63271.41;5031371;28;20198;-75
2022/10/25 04:51:20;;;;;;;17.40;4.25;;;;;;;12.31;100.00;63267.31;5002906;28;20306;-75
2022/10/25 04:53:48;;;;;;;13.80;4.90;;;;;;;12.32;100.00;63273.97;5006901;28;20539;-76
2022/10/25 04:56:15;;;;;;;16.13;5.95;;;;;;;12.04;100.00;63237.28;5002913;28;20285;-74
2022/10/25 04:58:42;;;;;;;20.02;6.70;;;;;;;11.98;100.00;63233.63;5004053;28;20422;-76
2022/10/25 05:01:11;;;;;;;23.45;7.93;;;;;;;11.86;100.00;63220.66;5001020;28;20260;-76
2022/10/25 05:03:38;;;;;;;13.15;6.70;;;;;;;11.86;100.00;63226.28;5006916;28;20281;-74
2022/10/25 05:06:09;;;;;;;14.30;7.45;;;;;;;11.70;100.00;63204.59;5008037;28;20254;-74
2022/10/25 05:08:38;;;;;;;28.20;8.23;;;;;;;11.70;100.00;63204.09;5002317;28;20283;-75
2022/10/25 05:11:09;;;;;;;25.45;8.30;;;;;;;11.68;100.00;63205.09;5003042;28;20277;-75
2022/10/25 05:13:38;;;;;;;17.17;7.40;;;;;;;11.66;100.00;63199.94;5005490;28;20219;-75
2022/10/25 05:16:05;;;;;;;17.27;8.10;;;;;;;11.67;100.00;63201.50;5004409;28;20234;-75
2022/10/25 05:18:33;;;;;;;19.48;8.48;;;;;;;11.68;100.00;63204.56;5001647;28;20207;-75
2022/10/25 05:21:02;;;;;;;23.95;8.50;;;;;;;11.64;100.00;63200.94;5004096;28;20550;-75
2022/10/25 05:23:30;;;;;;;17.30;7.93;;;;;;;11.65;100.00;63204.53;5005642;28;20227;-75
2022/10/25 05:26:02;;;;;;;19.48;6.25;;;;;;;11.67;100.00;63204.03;5004653;28;20199;-76
2022/10/25 05:28:30;;;;;;;15.30;7.28;;;;;;;11.73;100.00;63210.28;5000108;28;20544;-76
2022/10/25 05:30:57;;;;;;;17.08;6.95;;;;;;;11.82;100.00;63219.09;5005761;28;20199;-75
2022/10/25 05:33:24;;;;;;;20.77;6.25;;;;;;;11.90;100.00;63224.81;5006691;28;20203;-74
2022/10/25 05:35:51;;;;;;;22.15;7.15;;;;;;;12.02;100.00;63237.78;5003587;28;20418;-76
2022/10/25 05:38:17;;;;;;;21.80;6.95;;;;;;;12.16;100.00;63251.75;5006683;28;20215;-75
2022/10/25 05:40:51;;;;;;;17.08;6.40;;;;;;;12.28;100.00;63267.28;5006353;28;20243;-76
2022/10/25 05:43:18;;;;;;;16.25;6.70;;;;;;;12.41;100.00;63277.66;5007547;28;20208;-75
2022/10/25 05:45:46;;;;;;;23.75;6.97;;;;;;;12.63;100.00;63301.00;4996689;28;20243;-76
2022/10/25 05:48:13;;;;;;;23.52;6.97;;;;;;;12.82;100.00;63320.69;5004267;28;20218;-76
2022/10/25 05:50:40;;;;;;;19.02;7.55;;;;;;;12.98;100.00;63341.38;4993741;28;20203;-76
2022/10/25 05:53:07;;;;;;;16.17;7.13;;;;;;;13.10;100.00;63351.28;4990488;28;20223;-75
2022/10/25 05:55:35;;;;;;;11.85;6.70;;;;;;;13.22;100.00;63361.69;4987445;28;20268;-76
2022/10/25 05:58:02;;;;;;;27.85;8.55;;;;;;;13.33;100.00;63370.03;4993227;28;20215;-76
2022/10/25 06:00:29;;;;;;;14.60;7.35;;;;;;;13.47;100.00;63387.63;5006293;28;20242;-75
2022/10/25 06:03:00;;;;;;;20.02;7.60;;;;;;;13.63;100.00;63406.78;4996186;28;20274;-76
2022/10/25 06:05:27;;;;;;;20.92;9.02;;;;;;;13.79;100.00;63422.88;5001020;28;20230;-78
2022/10/25 06:07:54;;;;;;;21.08;8.57;;;;;;;13.91;100.00;63435.84;4997378;28;20294;-75
2022/10/25 06:10:21;;;;;;;13.93;7.75;;;;;;;13.94;99.85;63435.91;5006939;28;20275;-76
2022/10/25 06:12:48;;;;;;;26.38;8.18;;;;;;;13.99;99.61;63441.09;5006307;28;20245;-76
2022/10/25 06:15:15;;;;;;;20.92;9.65;;;;;;;13.94;100.00;63438.47;5008545;28;20196;-76
2022/10/25 06:17:42;;;;;;;28.10;10.82;;;;;;;13.88;100.00;63427.63;4999246;28;20286;-75
2022/10/25 06:20:11;;;;;;;28.35;11.80;;;;;;;13.78;99.85;63424.41;5004074;28;20200;-76
2022/10/25 06:22:37;;;;;;;26.92;10.18;;;;;;;13.63;99.40;63406.28;5007833;28;20216;-75
2022/10/25 06:25:05;;;;;;;28.23;10.80;;;;;;;13.51;99.68;63391.78;5008227;28;20239;-75
2022/10/25 06:27:32;;;;;;;31.35;10.40;;;;;;;13.56;99.81;63394.41;4998876;28;20447;-76
2022/10/25 06:29:59;;;;;;;23.42;10.65;;;;;;;13.58;99.80;63406.22;5009490;28;20242;-75
2022/10/25 06:32:26;;;;;;;31.75;10.80;;;;;;;13.70;100.00;63411.00;5006251;28;20270;-75
2022/10/25 06:34:53;;;;;;;21.98;8.77;;;;;;;13.82;100.00;63421.38;5006097;28;20199;-76
2022/10/25 06:37:21;;;;;;;24.70;8.57;;;;;;;13.93;100.00;63437.41;4990714;28;20223;-75
2022/10/25 06:39:48;;;;;;;16.27;9.32;;;;;;;14.12;100.00;63461.72;4987394;28;20457;-76
2022/10/25 06:42:14;;;;;;;25.15;9.73;;;;;;;14.27;100.00;63472.22;4987087;28;20226;-75
2022/10/25 06:44:41;;;;;;;26.27;10.07;;;;;;;14.42;100.00;63488.31;4987113;28;20228;-75
2022/10/25 06:47:08;;;;;;;18.92;7.93;;;;;;;14.62;99.90;63509.09;4992616;28;20462;-76
2022/10/25 06:49:35;;;;;;;16.67;8.60;;;;;;;14.77;99.12;63524.16;5006013;28;20245;-75
2022/10/25 06:52:02;;;;;;;25.67;7.68;;;;;;;14.92;98.11;63545.38;5006940;28;20219;-75
2022/10/25 06:54:30;;;;;;;14.82;8.10;;;;;;;15.16;97.56;63561.56;4994230;28;20204;-76
2022/10/25 06:56:58;;;;;;;17.20;6.50;;;;;;;15.33;92.26;63579.78;4989594;28;20235;-77
2022/10/25 06:59:25;;;;;;;18.30;8.70;;;;;;;15.38;95.30;63587.53;4988275;28;20222;-76
2022/10/25 07:01:52;;;;;;;20.63;8.63;;;;;;;15.52;95.44;63602.09;4992882;28;20223;-76
2022/10/25 07:04:19;;;;;;;16.55;8.90;;;;;;;15.64;94.56;63612.00;4986588;28;20463;-77
2022/10/25 07:06:46;;;;;;;20.85;7.88;;;;;;;15.71;92.41;63621.84;4989799;28;20270;-76
2022/10/25 07:09:14;;;;;;;27.08;8.45;;;;;;;15.74;89.25;63627.53;4990169;28;20501;-75
2022/10/25 07:11:44;;;;;;;13.40;6.93;;;;;;;15.61;87.78;63608.91;4998686;28;20235;-76
2022/10/25 07:14:11;;;;;;;11.07;6.32;;;;;;;15.71;86.85;63619.28;5004738;28;20201;-76
2022/10/25 07:16:38;;;;;;;19.88;5.57;;;;;;;15.77;86.41;63627.59;5002324;28;20673;-76
2022/10/25 07:19:05;;;;;;;13.05;5.63;;;;;;;15.87;87.17;63635.41;4995044;28;20242;-76
2022/10/25 07:21:33;;;;;;;16.60;5.93;;;;;;;15.89;87.50;63640.56;5001718;28;20551;-75
2022/10/25 07:24:01;;;;;;;15.23;6.75;;;;;;;15.92;86.17;63640.59;4993516;28;20226;-76
2022/10/25 07:26:30;;;;;;;16.23;6.20;;;;;;;15.93;86.10;63646.78;5001783;28;20230;-77
2022/10/25 07:29:00;;;;;;;13.52;5.25;;;;;;;16.05;85.38;63659.78;4987241;28;20275;-77
2022/10/25 07:31:29;;;;;;;16.33;5.13;;;;;;;16.13;84.31;63665.53;5002718;28;20571;-77
2022/10/25 07:33:59;;;;;;;19.55;6.80;;;;;;;15.88;84.63;63639.00;4997706;28;20206;-79
2022/10/25 07:36:26;;;;;;;14.77;6.20;;;;;;;15.88;83.68;63642.09;4997537;28;20242;-75
2022/10/25 07:38:53;;;;;;;15.50;6.93;;;;;;;16.07;83.79;63656.72;5003819;28;20210;-76
2022/10/25 07:41:19;;;;;;;15.45;6.43;;;;;;;16.28;81.25;63677.50;5010162;28;20249;-76
2022/10/25 07:43:46;;;;;;;15.30;7.13;;;;;;;16.38;81.15;63687.91;5002541;28;20210;-76
2022/10/25 07:46:15;;;;;;;14.60;6.57;;;;;;;16.53;77.53;63709.19;4994835;28;20532;-77
2022/10/25 07:48:42;;;;;;;16.58;5.80;;;;;;;16.60;74.05;63715.97;4989836;28;20410;-77
2022/10/25 07:51:11;;;;;;;13.80;5.70;;;;;;;16.72;72.19;63726.41;5004750;28;20261;-75
2022/10/25 07:53:38;;;;;;;13.93;5.93;;;;;;;16.79;73.72;63733.19;5006796;28;20217;-76
2022/10/25 07:56:06;;;;;;;15.00;5.95;;;;;;;16.90;73.38;63747.19;5003706;28;20234;-76
2022/10/25 07:58:33;;;;;;;20.92;5.97;;;;;;;17.04;71.65;63757.13;5014557;28;20498;-78
2022/10/25 08:01:01;;;;;;;17.63;5.97;;;;;;;17.20;70.11;63773.78;5002532;28;20217;-76
2022/10/25 08:03:30;;;;;;;17.48;6.32;;;;;;;17.14;67.93;63767.53;4994423;28;20442;-78
2022/10/25 08:05:57;;;;;;;23.38;7.60;;;;;;;17.20;69.74;63778.94;5002539;28;20241;-76
2022/10/25 08:08:24;;;;;;;13.20;6.25;;;;;;;17.44;68.10;63803.41;4997502;28;20202;-76
2022/10/25 08:10:51;;;;;;;18.88;6.70;;;;;;;17.42;66.68;63795.66;4991091;28;20195;-77
2022/10/25 08:13:19;;;;;;;22.95;6.65;;;;;;;17.57;68.75;63814.38;5003667;28;20202;-75
2022/10/25 08:15:50;;;;;;;17.30;6.68;;;;;;;17.67;67.75;63821.72;5007061;28;20245;-76
2022/10/25 08:18:17;;;;;;;15.23;6.00;;;;;;;17.46;67.52;63808.09;4990791;28;20222;-75
2022/10/25 08:20:45;;;;;;;22.00;7.25;;;;;;;17.62;67.79;63819.06;4997998;28;20457;-77
2022/10/25 08:23:12;;;;;;;15.38;6.35;;;;;;;17.67;66.74;63824.28;5008358;28;20515;-75
2022/10/25 08:25:39;;;;;;;15.88;5.50;;;;;;;17.77;66.41;63832.13;5004506;28;20604;-76
2022/10/25 08:28:06;;;;;;;15.60;6.10;;;;;;;17.83;64.72;63844.03;5010200;28;20224;-75
2022/10/25 08:30:34;;;;;;;15.88;6.07;;;;;;;17.71;66.20;63831.00;5002084;28;20192;-76
2022/10/25 08:33:01;;;;;;;17.52;6.38;;;;;;;17.88;65.88;63843.56;4996652;28;20222;-75
2022/10/25 08:35:28;;;;;;;16.23;6.10;;;;;;;18.09;65.37;63868.00;5008336;28;20207;-75
2022/10/25 08:37:59;;;;;;;16.85;5.47;;;;;;;17.95;64.77;63853.44;5004713;28;20266;-75
2022/10/25 08:40:37;;;;;;;13.30;5.80;;;;;;;17.99;65.22;63860.19;5000121;28;20218;-75
2022/10/25 08:43:13;;;;;;;21.33;6.13;;;;;;;18.06;64.14;63865.41;5006494;28;20222;-74
2022/10/25 08:45:55;;;;;;;18.55;6.32;;;;;;;18.08;64.06;63870.09;4989252;28;20221;-76
2022/10/25 08:48:26;;;;;;;18.92;6.82;;;;;;;18.10;64.85;63869.06;4988865;28;20504;-76
2022/10/25 08:50:56;;;;;;;13.43;6.38;;;;;;;18.33;63.95;63893.53;5008044;28;20370;-75
2022/10/25 08:53:30;;;;;;;15.70;6.63;;;;;;;18.49;63.30;63909.72;5008114;28;20221;-75
2022/10/25 08:55:58;;;;;;;20.02;6.68;;;;;;;18.63;62.25;63921.72;5010564;28;20402;-75
2022/10/25 08:58:29;;;;;;;13.30;6.22;;;;;;;18.76;61.13;63932.69;5000050;28;20213;-76
2022/10/25 09:01:00;;;;;;;15.70;6.30;;;;;;;18.90;60.49;63957.59;5008055;28;20195;-76
2022/10/25 09:03:27;;;;;;;15.27;5.95;;;;;;;18.85;59.83;63947.25;5008587;28;20210;-76
2022/10/25 09:06:06;;;;;;;23.00;7.50;;;;;;;18.92;60.49;63954.53;5000419;28;20294;-76
2022/10/25 09:09:04;;;;;;;17.00;6.72;;;;;;;19.13;60.03;63979.00;5007858;28;20270;-75
2022/10/25 09:11:48;;;;;;;22.48;7.57;;;;;;;19.22;58.37;63983.22;5007168;28;20309;-75
2022/10/25 09:14:26;;;;;;;19.85;7.18;;;;;;;19.29;57.97;63995.19;5009787;28;20199;-76
2022/10/25 09:16:55;;;;;;;18.20;6.65;;;;;;;19.30;57.67;63991.06;4995544;28;20547;-74
2022/10/25 09:19:32;;;;;;;19.95;6.57;;;;;;;19.32;58.20;63996.25;4997017;28;20198;-76
2022/10/25 09:22:01;;;;;;;21.40;6.63;;;;;;;19.55;58.22;64017.16;5006460;28;20233;-76
2022/10/25 09:24:36;;;;;;;12.57;6.22;;;;;;;19.77;55.66;64037.50;5004237;28;20211;-77
2022/10/25 09:27:06;;;;;;;19.83;6.65;;;;;;;19.91;55.06;64054.69;5004895;28;20226;-76
2022/10/25 09:29:37;;;;;;;21.60;7.47;;;;;;;19.77;54.99;64040.09;5006951;28;20210;-76
2022/10/25 09:32:14;;;;;;;20.17;8.18;;;;;;;19.82;56.16;64047.34;5005857;28;20222;-76
2022/10/25 09:34:42;;;;;;;18.77;6.75;;;;;;;19.99;55.03;64065.63;5006053;28;20265;-76
2022/10/25 09:37:15;;;;;;;16.35;6.30;;;;;;;20.14;53.96;64081.25;5006630;28;20227;-77
2022/10/25 09:39:46;;;;;;;19.00;8.20;;;;;;;20.17;54.38;64086.50;5006102;28;20190;-77
2022/10/25 09:42:19;;;;;;;15.43;7.15;;;;;;;20.32;53.01;64102.13;5004706;28;20553;-76
2022/10/25 09:44:51;;;;;;;25.35;7.65;;;;;;;20.40;53.41;64108.41;5004477;28;20396;-77
2022/10/25 09:47:37;;;;;;;25.00;8.75;;;;;;;20.49;52.63;64119.88;5006136;28;20219;-77
2022/10/25 09:50:10;;;;;;;18.27;8.05;;;;;;;20.60;52.63;64131.38;5005904;28;20270;-77
2022/10/25 09:52:44;;;;;;;23.08;8.40;;;;;;;20.69;51.17;64138.69;4994214;28;20234;-77
2022/10/25 09:55:38;;;;;;;25.02;7.63;;;;;;;20.63;51.94;64129.31;4988174;28;20209;-76
2022/10/25 09:58:06;;;;;;;25.45;8.32;;;;;;;20.63;51.65;64137.63;4991341;28;20219;-77
2022/10/25 10:00:36;;;;;;;20.27;9.00;;;;;;;20.75;50.53;64147.03;4992603;28;20402;-76
2022/10/25 10:03:03;;;;;;;14.35;6.93;;;;;;;20.77;50.44;64143.41;4995873;28;20223;-76
2022/10/25 10:05:31;;;;;;;23.75;7.20;;;;;;;20.80;51.03;64149.13;5007421;28;20226;-77
2022/10/25 10:07:59;;;;;;;16.92;6.53;;;;;;;20.76;50.82;64145.47;5008313;28;20531;-75
2022/10/25 10:10:34;;;;;;;15.10;6.75;;;;;;;20.83;50.99;64152.78;4997597;28;20265;-76
2022/10/25 10:13:06;;;;;;;25.02;7.13;;;;;;;20.86;50.20;64155.41;4987378;28;20285;-75
2022/10/25 10:15:38;;;;;;;17.65;7.90;;;;;;;20.86;50.75;64155.94;4987748;28;20188;-77
2022/10/25 10:18:22;;;;;;;18.27;7.35;;;;;;;21.01;50.27;64173.66;4998879;28;20234;-76
2022/10/25 10:20:59;;;;;;;22.17;6.85;;;;;;;21.18;50.38;64194.00;5006074;28;20261;-76
2022/10/25 10:23:28;;;;;;;26.90;8.27;;;;;;;21.28;49.45;64201.84;5007069;28;20202;-77
2022/10/25 10:25:56;;;;;;;20.90;7.32;;;;;;;21.31;49.18;64200.31;5004621;28;20607;-76
2022/10/25 10:28:23;;;;;;;21.98;7.53;;;;;;;21.30;48.05;64201.88;5003440;28;20226;-79
2022/10/25 10:30:55;;;;;;;17.38;7.93;;;;;;;21.28;48.80;64199.25;5006613;28;20195;-78
2022/10/25 10:33:23;;;;;;;21.92;7.45;;;;;;;21.21;48.27;64195.06;4990675;28;20207;-77
2022/10/25 10:35:54;;;;;;;14.68;6.57;;;;;;;21.16;48.61;64184.66;5009413;28;20198;-76
2022/10/25 10:38:23;;;;;;;21.45;7.82;;;;;;;21.05;48.56;64178.38;5006970;28;20233;-76
2022/10/25 10:40:51;;;;;;;25.58;7.57;;;;;;;21.02;48.72;64177.81;5010440;28;20199;-77
2022/10/25 10:43:30;;;;;;;18.58;7.68;;;;;;;21.03;48.51;64171.09;5004122;28;20218;-75
2022/10/25 10:46:02;;;;;;;19.55;7.32;;;;;;;21.09;48.38;64179.44;4988051;28;20397;-76
2022/10/25 10:48:34;;;;;;;19.05;7.20;;;;;;;21.19;48.90;64192.97;4993251;28;20383;-77
2022/10/25 10:51:02;;;;;;;18.13;7.43;;;;;;;21.30;48.56;64201.34;5007524;28;20195;-76
2022/10/25 10:53:31;;;;;;;20.55;7.85;;;;;;;21.41;47.37;64210.25;5007252;28;20253;-76
2022/10/25 10:56:00;;;;;;;20.08;7.15;;;;;;;21.51;47.39;64228.47;5008205;28;20218;-76
2022/10/25 10:58:30;;;;;;;22.38;7.75;;;;;;;21.59;47.18;64231.66;5006604;28;20199;-77
2022/10/25 11:00:59;;;;;;;18.00;7.30;;;;;;;21.74;46.61;64245.25;5006914;28;20195;-75
2022/10/25 11:03:45;;;;;;;23.98;8.18;;;;;;;21.79;46.99;64255.66;5006615;28;20198;-74
2022/10/25 11:06:16;;;;;;;9.40;6.13;;;;;;;21.91;46.89;64264.59;5005363;28;20594;-75
2022/10/25 11:08:45;;;;;;;25.30;7.18;;;;;;;21.92;45.37;64268.75;5005344;28;20210;-76
2022/10/25 11:11:15;;;;;;;15.45;6.32;;;;;;;22.08;44.18;64287.53;4992572;28;20226;-77
2022/10/25 11:13:52;;;;;;;15.65;6.30;;;;;;;22.00;43.18;64274.00;4988245;28;20223;-76
2022/10/25 11:16:44;;;;;;;15.82;5.80;;;;;;;22.19;42.47;64294.38;4999038;28;20281;-76
2022/10/25 11:19:26;;;;;;;18.52;6.55;;;;;;;22.24;42.68;64304.78;5002654;28;20215;-76
2022/10/25 11:22:09;;;;;;;19.27;7.43;;;;;;;22.31;42.84;64306.91;4991451;28;20357;-77
2022/10/25 11:24:45;;;;;;;12.98;6.93;;;;;;;22.46;43.21;64322.59;4989940;28;20218;-76
2022/10/25 11:27:20;;;;;;;21.63;7.68;;;;;;;22.56;42.92;64333.06;5006490;28;20237;-75
2022/10/25 11:30:04;;;;;;;27.67;7.32;;;;;;;22.71;42.95;64351.34;5007855;28;20230;-75
2022/10/25 11:33:03;;;;;;;20.33;6.45;;;;;;;22.85;43.42;64362.84;4996446;28;20254;-76
2022/10/25 11:35:44;;;;;;;17.52;6.13;;;;;;;22.99;42.00;64374.91;5002790;28;20203;-77